createdAt,value
2018-12-23T00:00:05.385Z,10.10
2018-12-23T00:02:32.933Z,10.20
2018-12-23T00:05:00.500Z,10.20
2018-12-23T00:07:28.072Z,10.10
2018-12-23T00:09:56.601Z,10.10
2018-12-23T00:12:24.148Z,10.20
2018-12-23T00:14:51.696Z,10.20
2018-12-23T00:17:19.274Z,10.20
2018-12-23T00:19:46.820Z,10.10
2018-12-23T00:22:14.393Z,10.10
2018-12-23T00:24:41.958Z,10.10
2018-12-23T00:27:09.502Z,10.10
2018-12-23T00:29:37.845Z,10.10
2018-12-23T00:32:05.388Z,10.10
2018-12-23T00:34:32.955Z,10.20
2018-12-23T00:37:00.528Z,10.20
2018-12-23T00:39:28.100Z,10.20
2018-12-23T00:41:55.652Z,10.30
2018-12-23T00:44:23.191Z,10.20
2018-12-23T00:46:50.770Z,10.20
2018-12-23T00:49:18.343Z,10.20
2018-12-23T00:51:46.916Z,10.20
2018-12-23T00:54:14.464Z,10.20
2018-12-23T00:56:43.303Z,10.20
2018-12-23T00:59:10.852Z,10.10
2018-12-23T01:01:39.438Z,10.20
2018-12-23T01:04:06.980Z,10.20
2018-12-23T01:06:34.558Z,10.20
2018-12-23T01:09:02.139Z,10.20
2018-12-23T01:11:29.714Z,10.20
2018-12-23T01:13:58.298Z,10.20
2018-12-23T01:16:25.844Z,10.10
2018-12-23T01:18:53.412Z,10.10
2018-12-23T01:21:20.981Z,10.10
2018-12-23T01:23:49.611Z,10.20
2018-12-23T01:26:17.265Z,10.20
2018-12-23T01:28:44.776Z,10.10
2018-12-23T01:31:13.089Z,10.10
2018-12-23T01:33:40.656Z,10.10
2018-12-23T01:36:08.209Z,10.10
2018-12-23T01:38:37.377Z,10.10
2018-12-23T01:41:04.945Z,10.00
2018-12-23T01:43:32.508Z,10.00
2018-12-23T01:46:00.385Z,10.00
2018-12-23T01:48:27.925Z,10.00
2018-12-23T01:50:55.505Z,10.00
2018-12-23T01:53:23.048Z,10.00
2018-12-23T01:55:50.621Z,10.00
2018-12-23T01:58:18.170Z,10.10
2018-12-23T02:00:45.745Z,10.00
2018-12-23T02:03:13.284Z,10.10
2018-12-23T02:05:45.976Z,10.10
2018-12-23T02:08:08.453Z,10.00
2018-12-23T02:10:35.997Z,10.00
2018-12-23T02:13:03.570Z,10.00
2018-12-23T02:15:31.885Z,10.10
2018-12-23T02:17:59.464Z,10.00
2018-12-23T02:20:27.009Z,10.10
2018-12-23T02:22:54.548Z,10.10
2018-12-23T02:25:22.121Z,10.00
2018-12-23T02:27:49.659Z,10.10
2018-12-23T02:30:17.275Z,10.00
2018-12-23T02:32:44.829Z,10.00
2018-12-23T02:35:13.165Z,10.00
2018-12-23T02:37:41.504Z,10.00
2018-12-23T02:40:09.842Z,10.10
2018-12-23T02:42:37.395Z,10.10
2018-12-23T02:45:04.949Z,10.10
2018-12-23T02:47:32.523Z,10.10
2018-12-23T02:50:00.153Z,10.10
2018-12-23T02:52:27.704Z,10.10
2018-12-23T02:54:55.272Z,10.10
2018-12-23T02:57:22.811Z,10.20
2018-12-23T02:59:50.357Z,10.20
2018-12-23T03:02:17.928Z,10.10
2018-12-23T03:04:45.469Z,10.10
2018-12-23T03:09:47.959Z,10.00
2018-12-23T03:12:15.624Z,10.00
2018-12-23T03:14:43.193Z,10.00
2018-12-23T03:17:10.759Z,10.10
2018-12-23T03:19:38.307Z,10.10
2018-12-23T03:22:05.887Z,10.10
2018-12-23T03:24:33.427Z,10.00
2018-12-23T03:27:01.008Z,10.00
2018-12-23T03:29:28.564Z,10.00
2018-12-23T03:31:56.109Z,10.00
2018-12-23T03:34:23.680Z,10.00
2018-12-23T03:36:51.223Z,10.00
2018-12-23T03:39:18.789Z,9.90
2018-12-23T03:41:46.333Z,10.00
2018-12-23T03:44:13.905Z,10.00
2018-12-23T03:46:41.461Z,10.00
2018-12-23T03:49:09.012Z,10.00
2018-12-23T03:51:36.594Z,10.00
2018-12-23T03:54:04.139Z,9.90
2018-12-23T03:56:31.747Z,9.90
2018-12-23T03:59:00.280Z,10.00
2018-12-23T04:01:27.826Z,9.90
2018-12-23T04:03:55.392Z,10.00
2018-12-23T04:06:24.806Z,10.00
2018-12-23T04:08:50.567Z,10.00
2018-12-23T04:11:18.228Z,10.10
2018-12-23T04:13:45.813Z,10.10
2018-12-23T04:16:13.355Z,10.00
2018-12-23T04:18:40.898Z,10.00
2018-12-23T04:21:08.468Z,10.10
2018-12-23T04:23:38.040Z,10.10
2018-12-23T04:26:05.566Z,10.10
2018-12-23T04:28:33.136Z,10.10
2018-12-23T04:31:01.458Z,10.10
2018-12-23T04:33:29.975Z,10.00
2018-12-23T04:35:57.524Z,10.10
2018-12-23T04:38:25.083Z,10.00
2018-12-23T04:40:52.622Z,10.00
2018-12-23T04:43:20.186Z,10.00
2018-12-23T04:45:47.728Z,10.00
2018-12-23T04:48:15.272Z,10.00
2018-12-23T04:50:43.825Z,9.90
2018-12-23T04:53:11.368Z,9.90
2018-12-23T04:55:38.941Z,10.00
2018-12-23T04:58:08.272Z,10.00
2018-12-23T05:00:35.819Z,10.00
2018-12-23T05:03:04.392Z,10.00
2018-12-23T05:05:32.704Z,10.00
2018-12-23T05:08:00.272Z,10.00
2018-12-23T05:10:27.812Z,10.00
2018-12-23T05:12:55.395Z,10.00
2018-12-23T05:15:22.945Z,10.00
2018-12-23T05:17:50.490Z,10.00
2018-12-23T05:20:18.061Z,10.00
2018-12-23T05:22:45.604Z,10.00
2018-12-23T05:25:13.167Z,10.10
2018-12-23T05:27:40.711Z,10.00
2018-12-23T05:30:09.263Z,10.00
2018-12-23T05:32:36.837Z,10.00
2018-12-23T05:35:04.379Z,10.00
2018-12-23T05:37:32.716Z,9.90
2018-12-23T05:40:00.259Z,9.90
2018-12-23T05:42:27.843Z,9.90
2018-12-23T05:44:55.384Z,9.90
2018-12-23T05:47:22.915Z,9.90
2018-12-23T05:49:50.483Z,9.90
2018-12-23T05:52:18.048Z,9.90
2018-12-23T05:54:45.611Z,10.00
2018-12-23T05:57:13.149Z,9.90
2018-12-23T05:59:40.712Z,9.90
2018-12-23T06:02:08.283Z,9.90
2018-12-23T06:04:35.823Z,10.00
2018-12-23T06:07:03.397Z,10.00
2018-12-23T06:09:30.951Z,10.00
2018-12-23T06:11:58.516Z,9.90
2018-12-23T06:14:26.048Z,9.80
2018-12-23T06:16:53.579Z,9.80
2018-12-23T06:19:21.217Z,9.80
2018-12-23T06:21:48.786Z,9.90
2018-12-23T06:24:16.350Z,9.90
2018-12-23T06:26:43.889Z,10.00
2018-12-23T06:29:11.456Z,10.00
2018-12-23T06:31:40.021Z,10.00
2018-12-23T06:34:07.611Z,10.00
2018-12-23T06:36:35.151Z,10.00
2018-12-23T06:39:02.716Z,10.00
2018-12-23T06:41:31.285Z,10.00
2018-12-23T06:43:58.853Z,9.90
2018-12-23T06:46:26.386Z,9.90
2018-12-23T06:48:54.032Z,9.90
2018-12-23T06:51:21.603Z,9.90
2018-12-23T06:53:49.934Z,9.80
2018-12-23T06:56:17.472Z,9.80
2018-12-23T06:58:45.036Z,9.90
2018-12-23T07:01:12.616Z,9.90
2018-12-23T07:03:40.192Z,9.90
2018-12-23T07:06:08.498Z,9.90
2018-12-23T07:08:37.808Z,9.80
2018-12-23T07:11:05.371Z,9.80
2018-12-23T07:13:33.005Z,9.90
2018-12-23T07:16:00.567Z,9.90
2018-12-23T07:18:28.143Z,9.90
2018-12-23T07:20:55.716Z,9.90
2018-12-23T07:23:23.275Z,9.90
2018-12-23T07:25:50.812Z,9.90
2018-12-23T07:28:18.384Z,10.00
2018-12-23T07:30:46.057Z,10.00
2018-12-23T07:33:13.619Z,10.00
2018-12-23T07:35:41.246Z,10.00
2018-12-23T07:38:09.804Z,10.10
2018-12-23T07:40:37.379Z,10.10
2018-12-23T07:43:04.943Z,10.10
2018-12-23T07:45:32.491Z,10.10
2018-12-23T07:48:00.064Z,10.10
2018-12-23T07:50:27.662Z,10.10
2018-12-23T07:52:55.396Z,10.20
2018-12-23T07:55:22.949Z,10.20
2018-12-23T07:57:50.504Z,10.10
2018-12-23T08:00:18.076Z,10.20
2018-12-23T08:02:45.613Z,10.20
2018-12-23T08:05:13.186Z,10.30
2018-12-23T08:07:40.720Z,10.30
2018-12-23T08:10:08.261Z,10.20
2018-12-23T08:12:36.592Z,10.30
2018-12-23T08:15:04.132Z,10.20
2018-12-23T08:17:31.703Z,10.30
2018-12-23T08:20:00.187Z,10.30
2018-12-23T08:22:27.943Z,10.40
2018-12-23T08:24:57.117Z,10.40
2018-12-23T08:27:23.111Z,10.50
2018-12-23T08:29:50.676Z,10.50
2018-12-23T08:32:18.235Z,10.40
2018-12-23T08:34:46.807Z,10.40
2018-12-23T08:37:15.124Z,10.60
2018-12-23T08:39:42.674Z,10.50
2018-12-23T08:42:11.240Z,10.50
2018-12-23T08:44:38.783Z,10.50
2018-12-23T08:47:07.357Z,10.60
2018-12-23T08:49:34.896Z,10.70
2018-12-23T08:52:02.468Z,10.70
2018-12-23T08:54:30.027Z,10.70
2018-12-23T08:56:58.601Z,10.70
2018-12-23T08:59:26.185Z,10.70
2018-12-23T09:01:53.759Z,10.70
2018-12-23T09:04:21.320Z,10.60
2018-12-23T09:06:48.860Z,10.60
2018-12-23T09:09:16.391Z,10.60
2018-12-23T09:11:44.725Z,10.70
2018-12-23T09:14:12.279Z,10.70
2018-12-23T09:16:39.847Z,10.90
2018-12-23T09:19:07.389Z,10.90
2018-12-23T09:21:34.955Z,10.90
2018-12-23T09:24:02.525Z,10.90
2018-12-23T09:26:30.073Z,10.80
2018-12-23T09:28:58.747Z,10.70
2018-12-23T09:31:26.252Z,10.70
2018-12-23T09:33:54.856Z,10.60
2018-12-23T09:36:22.395Z,10.50
2018-12-23T09:38:50.721Z,10.60
2018-12-23T09:41:18.290Z,10.50
2018-12-23T09:43:45.831Z,10.60
2018-12-23T09:46:13.404Z,10.70
2018-12-23T09:48:40.947Z,10.70
2018-12-23T09:51:08.517Z,10.80
2018-12-23T09:53:36.063Z,10.90
2018-12-23T09:56:03.609Z,10.90
2018-12-23T09:58:31.180Z,10.90
2018-12-23T10:00:58.718Z,10.90
2018-12-23T10:03:26.280Z,10.80
2018-12-23T10:05:53.913Z,10.90
2018-12-23T10:08:21.483Z,10.80
2018-12-23T10:10:49.020Z,10.80
2018-12-23T10:13:16.588Z,10.90
2018-12-23T10:15:44.156Z,10.80
2018-12-23T10:18:11.723Z,10.90
2018-12-23T10:20:39.264Z,10.90
2018-12-23T10:23:06.811Z,10.80
2018-12-23T10:25:34.379Z,10.80
2018-12-23T10:28:01.920Z,10.80
2018-12-23T10:30:29.498Z,10.80
2018-12-23T10:32:57.074Z,10.80
2018-12-23T10:35:24.636Z,10.70
2018-12-23T10:37:52.171Z,10.60
2018-12-23T10:40:19.743Z,10.30
2018-12-23T10:42:47.279Z,10.40
2018-12-23T10:45:14.862Z,10.50
2018-12-23T10:47:42.427Z,10.50
2018-12-23T10:50:09.976Z,10.50
2018-12-23T10:52:37.539Z,10.50
2018-12-23T10:55:05.072Z,10.50
2018-12-23T10:57:32.644Z,10.50
2018-12-23T11:00:00.207Z,10.50
2018-12-23T11:02:27.757Z,10.50
2018-12-23T11:04:55.299Z,10.40
2018-12-23T11:07:22.872Z,10.40
2018-12-23T11:09:50.422Z,10.40
2018-12-23T11:12:20.094Z,10.50
2018-12-23T11:14:48.556Z,10.40
2018-12-23T11:17:16.205Z,10.30
2018-12-23T11:19:43.717Z,10.40
2018-12-23T11:22:11.260Z,10.40
2018-12-23T11:24:38.826Z,10.30
2018-12-23T11:27:06.359Z,10.30
2018-12-23T11:29:33.896Z,10.00
2018-12-23T11:32:03.231Z,10.00
2018-12-23T11:34:30.879Z,10.00
2018-12-23T11:36:58.451Z,10.00
2018-12-23T11:39:26.009Z,9.90
2018-12-23T11:41:53.542Z,9.90
2018-12-23T11:44:21.110Z,9.80
2018-12-23T11:46:49.404Z,9.90
2018-12-23T11:49:16.974Z,9.90
2018-12-23T11:51:44.508Z,9.80
2018-12-23T11:54:12.076Z,9.90
2018-12-23T11:56:39.626Z,9.90
2018-12-23T11:59:07.160Z,9.90
2018-12-23T12:01:34.724Z,9.90
2018-12-23T12:04:02.271Z,9.90
2018-12-23T12:06:30.629Z,9.80
2018-12-23T12:08:58.161Z,9.80
2018-12-23T12:11:25.700Z,9.70
2018-12-23T12:13:53.313Z,9.70
2018-12-23T12:16:21.647Z,9.60
2018-12-23T12:18:49.213Z,9.60
2018-12-23T12:21:16.752Z,9.50
2018-12-23T12:23:45.287Z,9.70
2018-12-23T12:26:13.596Z,9.70
2018-12-23T12:28:41.164Z,9.60
2018-12-23T12:31:08.802Z,9.50
2018-12-23T12:33:36.331Z,9.60
2018-12-23T12:36:03.906Z,9.70
2018-12-23T12:38:31.444Z,9.70
2018-12-23T12:40:59.011Z,9.80
2018-12-23T12:43:28.308Z,9.80
2018-12-23T12:46:00.545Z,10.00
2018-12-23T12:48:24.200Z,10.00
2018-12-23T12:50:51.777Z,10.10
2018-12-23T12:53:19.320Z,10.10
2018-12-23T12:55:46.884Z,10.10
2018-12-23T12:58:14.458Z,10.20
2018-12-23T13:00:42.001Z,10.10
2018-12-23T13:03:09.560Z,10.20
2018-12-23T13:05:37.173Z,10.30
2018-12-23T13:08:04.731Z,10.50
2018-12-23T13:10:32.273Z,10.50
2018-12-23T13:12:59.808Z,10.50
2018-12-23T13:15:27.616Z,10.60
2018-12-23T13:17:55.194Z,10.70
2018-12-23T13:20:23.735Z,10.80
2018-12-23T13:22:51.299Z,10.80
2018-12-23T13:25:18.846Z,10.90
2018-12-23T13:27:46.384Z,10.90
2018-12-23T13:30:14.002Z,11.00
2018-12-23T13:32:41.527Z,10.90
2018-12-23T13:35:09.055Z,10.40
2018-12-23T13:37:37.623Z,10.20
2018-12-23T13:40:05.863Z,10.30
2018-12-23T13:42:33.426Z,10.30
2018-12-23T13:45:01.004Z,10.30
2018-12-23T13:50:48.775Z,10.50
2018-12-23T13:53:23.187Z,10.50
2018-12-23T13:59:03.041Z,10.50
2018-12-23T14:01:37.301Z,10.50
2018-12-23T14:07:11.788Z,10.70
2018-12-23T14:12:35.551Z,10.80
2018-12-23T14:15:03.455Z,10.90
2018-12-23T14:17:31.764Z,10.90
2018-12-23T14:19:59.324Z,10.90
2018-12-23T14:22:26.855Z,11.00
2018-12-23T14:24:54.394Z,10.90
2018-12-23T14:27:21.965Z,10.90
2018-12-23T14:29:50.266Z,10.90
2018-12-23T14:32:17.835Z,10.90
2018-12-23T14:34:45.368Z,11.00
2018-12-23T14:37:12.940Z,11.00
2018-12-23T14:39:40.471Z,11.10
2018-12-23T14:42:08.776Z,11.10
2018-12-23T14:44:36.339Z,11.10
2018-12-23T14:47:03.883Z,11.10
2018-12-23T14:49:31.443Z,11.10
2018-12-23T14:51:58.987Z,11.10
2018-12-23T14:54:26.671Z,11.20
2018-12-23T14:56:54.204Z,11.20
2018-12-23T14:59:21.771Z,11.20
2018-12-23T15:01:49.318Z,11.10
2018-12-23T15:04:16.852Z,11.10
2018-12-23T15:06:44.423Z,11.10
2018-12-23T15:09:11.955Z,11.10
2018-12-23T15:11:39.525Z,11.20
2018-12-23T15:14:07.827Z,11.30
2018-12-23T15:16:35.391Z,11.30
2018-12-23T15:19:02.961Z,11.20
2018-12-23T15:21:30.505Z,11.20
2018-12-23T15:23:58.077Z,11.30
2018-12-23T15:26:25.615Z,11.30
2018-12-23T15:28:53.181Z,11.30
2018-12-23T15:31:20.720Z,11.30
2018-12-23T15:33:48.306Z,11.40
2018-12-23T15:36:15.868Z,11.40
2018-12-23T15:38:43.435Z,11.40
2018-12-23T15:41:10.980Z,11.30
2018-12-23T15:43:38.549Z,11.30
2018-12-23T15:46:06.118Z,11.30
2018-12-23T15:48:33.683Z,11.30
2018-12-23T15:51:01.224Z,11.30
2018-12-23T15:53:28.789Z,11.30
2018-12-23T15:55:57.259Z,11.40
2018-12-23T15:58:24.827Z,11.40
2018-12-23T16:00:52.370Z,11.50
2018-12-23T16:03:19.917Z,11.50
2018-12-23T16:05:47.479Z,11.50
2018-12-23T16:08:15.027Z,11.60
2018-12-23T16:10:42.588Z,11.50
2018-12-23T16:13:10.423Z,11.50
2018-12-23T16:15:37.991Z,11.70
2018-12-23T16:18:05.551Z,11.70
2018-12-23T16:20:33.085Z,11.80
2018-12-23T16:23:00.656Z,11.80
2018-12-23T16:25:28.191Z,11.70
2018-12-23T16:27:55.815Z,11.70
2018-12-23T16:30:23.374Z,11.70
2018-12-23T16:32:51.194Z,11.80
2018-12-23T16:35:18.735Z,11.80
2018-12-23T16:37:46.302Z,11.80
2018-12-23T16:40:13.840Z,11.80
2018-12-23T16:42:42.147Z,11.80
2018-12-23T16:45:09.709Z,11.80
2018-12-23T16:47:37.380Z,11.90
2018-12-23T16:50:04.947Z,11.90
2018-12-23T16:52:32.491Z,11.90
2018-12-23T16:55:00.052Z,12.00
2018-12-23T16:57:27.640Z,12.00
2018-12-23T16:59:55.199Z,12.10
2018-12-23T17:02:22.749Z,12.10
2018-12-23T17:04:50.386Z,12.10
2018-12-23T17:07:17.912Z,12.00
2018-12-23T17:09:45.451Z,12.00
2018-12-23T17:12:13.778Z,12.10
2018-12-23T17:14:42.299Z,12.10
2018-12-23T17:17:09.832Z,12.10
2018-12-23T17:19:37.466Z,12.10
2018-12-23T17:22:05.030Z,12.20
2018-12-23T17:24:32.567Z,12.20
2018-12-23T17:27:01.147Z,12.10
2018-12-23T17:29:29.729Z,12.10
2018-12-23T17:31:57.519Z,12.10
2018-12-23T17:34:25.088Z,12.10
2018-12-23T17:36:52.652Z,12.20
2018-12-23T17:39:20.208Z,12.20
2018-12-23T17:41:47.751Z,12.20
2018-12-23T17:44:15.314Z,12.20
2018-12-23T17:46:42.851Z,12.30
2018-12-23T17:49:10.413Z,12.20
2018-12-23T17:51:37.963Z,12.30
2018-12-23T17:54:05.532Z,12.40
2018-12-23T17:56:33.088Z,12.30
2018-12-23T17:59:00.658Z,12.30
2018-12-23T18:01:28.220Z,12.30
2018-12-23T18:04:02.233Z,12.40
2018-12-23T18:06:25.152Z,12.40
2018-12-23T18:11:24.915Z,12.50
2018-12-23T18:13:52.455Z,12.50
2018-12-23T18:16:20.016Z,12.50
2018-12-23T18:18:47.555Z,12.50
2018-12-23T18:21:15.159Z,12.50
2018-12-23T18:23:43.475Z,12.50
2018-12-23T18:26:11.043Z,12.50
2018-12-23T18:28:38.611Z,12.50
2018-12-23T18:31:06.155Z,12.60
2018-12-23T18:33:33.726Z,12.60
2018-12-23T18:36:01.267Z,12.60
2018-12-23T18:38:28.832Z,12.60
2018-12-23T18:40:56.378Z,12.50
2018-12-23T18:43:23.959Z,12.60
2018-12-23T18:45:51.512Z,12.60
2018-12-23T18:48:19.071Z,12.60
2018-12-23T18:50:46.636Z,12.60
2018-12-23T18:53:15.195Z,12.60
2018-12-23T18:55:42.749Z,12.60
2018-12-23T18:58:10.283Z,12.70
2018-12-23T19:00:37.856Z,12.70
2018-12-23T19:03:05.399Z,12.70
2018-12-23T19:05:32.963Z,12.70
2018-12-23T19:08:00.504Z,12.70
2018-12-23T19:10:29.532Z,12.70
2018-12-23T19:13:08.883Z,12.70
2018-12-23T19:15:41.112Z,12.60
2018-12-23T19:21:30.276Z,12.60
2018-12-23T19:24:13.289Z,12.60
2018-12-23T19:26:58.484Z,12.60
2018-12-23T19:29:45.836Z,12.60
2018-12-23T19:32:15.201Z,12.60
2018-12-23T19:37:48.751Z,12.70
2018-12-23T19:43:25.112Z,12.70
2018-12-23T19:46:13.483Z,12.80
2018-12-23T19:48:49.839Z,12.70
2018-12-23T19:54:21.428Z,12.70
2018-12-23T19:57:04.687Z,12.70
2018-12-23T19:59:52.739Z,12.70
2018-12-23T20:02:38.751Z,12.70
2018-12-23T20:05:12.891Z,12.80
2018-12-23T20:07:57.164Z,12.70
2018-12-23T20:10:27.316Z,12.80
2018-12-23T20:13:00.786Z,12.80
2018-12-23T20:15:32.188Z,12.80
2018-12-23T20:18:03.600Z,12.80
2018-12-23T20:20:39.835Z,12.90
2018-12-23T20:23:19.917Z,12.90
2018-12-23T20:26:06.743Z,12.80
2018-12-23T20:28:46.160Z,12.80
2018-12-23T20:31:18.330Z,12.90
2018-12-23T20:34:06.671Z,12.80
2018-12-23T20:36:48.845Z,12.80
2018-12-23T20:39:25.036Z,12.90
2018-12-23T20:42:10.151Z,12.90
2018-12-23T20:44:39.213Z,12.90
2018-12-23T20:47:09.701Z,12.90
2018-12-23T20:49:41.809Z,13.00
2018-12-23T20:52:27.916Z,12.90
2018-12-23T20:58:10.323Z,12.90
2018-12-23T21:00:43.669Z,13.00
2018-12-23T21:03:14.004Z,13.00
2018-12-23T21:09:07.277Z,13.00
2018-12-23T21:11:53.607Z,12.90
2018-12-23T21:14:37.840Z,13.00
2018-12-23T21:17:12.179Z,13.00
2018-12-23T21:20:06.480Z,13.00
2018-12-23T21:22:52.763Z,12.90
2018-12-23T21:28:24.419Z,12.90
2018-12-23T21:30:55.523Z,12.90
2018-12-23T21:33:59.456Z,12.90
2018-12-23T21:36:36.912Z,12.90
2018-12-23T21:39:14.868Z,13.00
2018-12-23T21:41:44.240Z,13.00
2018-12-23T21:44:18.603Z,13.00
2018-12-23T21:49:53.850Z,13.00
2018-12-23T21:52:40.032Z,12.90
2018-12-23T21:55:14.280Z,13.00
2018-12-23T22:01:07.259Z,12.90
2018-12-23T22:03:45.380Z,12.90
2018-12-23T22:09:26.690Z,12.90
2018-12-23T22:14:47.711Z,13.00
2018-12-23T22:17:15.264Z,12.90
2018-12-23T22:19:42.831Z,12.90
2018-12-23T22:22:10.372Z,12.90
2018-12-23T22:24:37.909Z,12.90
2018-12-23T22:27:05.472Z,12.90
2018-12-23T22:29:33.007Z,12.90
2018-12-23T22:32:00.579Z,13.00
2018-12-23T22:34:28.150Z,13.00
2018-12-23T22:36:55.686Z,13.00
2018-12-23T22:39:23.987Z,12.90
2018-12-23T22:41:51.556Z,12.90
2018-12-23T22:44:19.089Z,12.90
2018-12-23T22:46:46.661Z,12.90
2018-12-23T22:49:14.224Z,12.90
2018-12-23T22:51:41.764Z,12.90
2018-12-23T22:54:09.326Z,12.90
2018-12-23T22:56:37.881Z,12.90
2018-12-23T22:59:05.448Z,12.90
2018-12-23T23:01:32.991Z,12.90
2018-12-23T23:04:00.563Z,12.90
2018-12-23T23:06:29.106Z,13.00
2018-12-23T23:08:56.676Z,12.90
2018-12-23T23:11:24.249Z,13.00
2018-12-23T23:13:51.821Z,13.00
2018-12-23T23:16:20.136Z,12.90
2018-12-23T23:18:47.676Z,12.90
2018-12-23T23:21:15.244Z,12.90
2018-12-23T23:23:42.780Z,12.90
2018-12-23T23:26:10.352Z,13.00
2018-12-23T23:28:39.581Z,12.90
2018-12-23T23:31:05.472Z,12.90
2018-12-23T23:33:34.029Z,12.90
2018-12-23T23:36:01.580Z,12.90
2018-12-23T23:38:29.144Z,12.90
2018-12-23T23:40:56.684Z,12.80
2018-12-23T23:43:25.215Z,12.80
2018-12-23T23:45:52.760Z,12.80
2018-12-23T23:48:20.429Z,12.90
2018-12-23T23:50:47.969Z,12.90
2018-12-23T23:53:15.508Z,13.00
2018-12-23T23:55:43.083Z,13.00
2018-12-23T23:58:10.637Z,13.00
